KMGN

Harbor Springs Airport

Harbor Springs, Michigan, USA
METAR KMGN 221735Z AUTO 21005KT 10SM CLR 11/06 A3002 RMK AO2 T01190065
Observed Flight Rules
May-22 @ 17:35 UTC (9 minutes ago) Visual Flight Rules
Wind Visibility Clouds
210° at 5 knots 10 miles
  • Clear skies
Temperatures Readings
Current 12°C / 54°F
Dewpoint 7°C / 45°F
Humidity 72%
Altimeter 30.02" Hg
Pressure 1017 hPa
Elevation 209
METAR KMGN 221735Z AUTO 21005KT 10SM CLR 11/06 A3002 RMK AO2 T01190065
Observed Flight Rules
May-22 @ 17:35 UTC
(9 minutes ago)
VFR
Wind Visibility
210° at 5 knots 10 miles
Clouds
  • Clear skies
Temperature Dewpoint
12°C / 54°F 7°C / 45°F
Humidity Altimeter Pressure
72% 30.02" Hg 1017 hPa